EEPU

Pärnu Airport

Pärnu, Estonia
METAR EEPU 181250Z 21011KT 160V230 CAVOK 24/16 Q1015
Observed Flight Rules
Aug-18 @ 12:50 UTC (2 hours ago) Visual Flight Rules
Wind Visibility Clouds
210° at 11 knots 10,000+ meters
  • Clear skies
Temperatures Readings
Current 24°C / 75°F
Dewpoint 16°C / 61°F
Humidity 61%
Altimeter 29.97" Hg
Pressure 1015 hPa
Elevation 14
METAR EEPU 181250Z 21011KT 160V230 CAVOK 24/16 Q1015
Observed Flight Rules
Aug-18 @ 12:50 UTC
(2 hours ago)
VFR
Wind Visibility
210° at 11 knots 10,000+ meters
Clouds
  • Clear skies
Temperature Dewpoint
24°C / 75°F 16°C / 61°F
Humidity Altimeter Pressure
61% 29.97" Hg 1015 hPa